Gray, Iowa
Current Conditions -  °F | °C
As of 7:35 AM on Thursday 23 Oct 2014 (Local Time) from KADU Reporting Station
Haze Haze  
Wind Chill: 57°   Ceiling: 300
Heat Index: 57°   Visibility: 3mi
Dew Point: 54°   Wind: 6mph
Humidity: 88%   Direction: 220°SW
Pressure: 30.03"   Gusts: NA
Location:  41.84°N, 94.98°W
Report Text: KADU 231235Z AUTO 22005KT 3SM HZ OVC003 14/12 A3003 RMK AO2
Loading
Personal Weather Stations






























Interactive Weather Map
Tropical Storm Tracking
New forecast layout! Learn more

10-Day Weather Forecast

Advertisements
Track Severe Weather on mobile